sensor_id;sensor_type;location;lat;lon;timestamp;P1;durP1;ratioP1;P2;durP2;ratioP2
58681;SDS011;44460;40.162;18.294;2022-07-17T00:02:19;16.23;;;6.35;;
58681;SDS011;44460;40.162;18.294;2022-07-17T00:04:45;20.00;;;7.22;;
58681;SDS011;44460;40.162;18.294;2022-07-17T00:07:10;12.32;;;6.65;;
58681;SDS011;44460;40.162;18.294;2022-07-17T00:09:36;17.42;;;6.95;;
58681;SDS011;44460;40.162;18.294;2022-07-17T00:12:01;17.02;;;6.85;;
58681;SDS011;44460;40.162;18.294;2022-07-17T00:14:26;12.75;;;6.00;;
58681;SDS011;44460;40.162;18.294;2022-07-17T00:16:52;12.50;;;6.15;;
58681;SDS011;44460;40.162;18.294;2022-07-17T00:19:18;14.68;;;5.38;;
58681;SDS011;44460;40.162;18.294;2022-07-17T00:21:44;11.50;;;5.68;;
58681;SDS011;44460;40.162;18.294;2022-07-17T00:24:09;14.13;;;5.90;;
58681;SDS011;44460;40.162;18.294;2022-07-17T00:26:35;12.00;;;5.65;;
58681;SDS011;44460;40.162;18.294;2022-07-17T00:29:04;12.60;;;5.15;;
58681;SDS011;44460;40.162;18.294;2022-07-17T00:31:29;10.20;;;5.10;;
58681;SDS011;44460;40.162;18.294;2022-07-17T00:33:55;12.50;;;5.53;;
58681;SDS011;44460;40.162;18.294;2022-07-17T00:36:20;10.40;;;5.05;;
58681;SDS011;44460;40.162;18.294;2022-07-17T00:38:46;14.80;;;5.38;;
58681;SDS011;44460;40.162;18.294;2022-07-17T00:41:13;15.75;;;5.00;;
58681;SDS011;44460;40.162;18.294;2022-07-17T00:43:38;10.65;;;4.68;;
58681;SDS011;44460;40.162;18.294;2022-07-17T00:46:04;17.80;;;4.85;;
58681;SDS011;44460;40.162;18.294;2022-07-17T00:48:29;14.20;;;4.95;;
58681;SDS011;44460;40.162;18.294;2022-07-17T00:50:55;12.40;;;4.60;;
58681;SDS011;44460;40.162;18.294;2022-07-17T00:53:21;19.30;;;5.75;;
58681;SDS011;44460;40.162;18.294;2022-07-17T00:55:47;16.38;;;4.35;;
58681;SDS011;44460;40.162;18.294;2022-07-17T00:58:23;11.15;;;4.57;;
58681;SDS011;44460;40.162;18.294;2022-07-17T01:00:49;15.52;;;4.22;;
58681;SDS011;44460;40.162;18.294;2022-07-17T01:03:14;15.15;;;4.50;;
58681;SDS011;44460;40.162;18.294;2022-07-17T01:05:40;8.75;;;4.25;;
58681;SDS011;44460;40.162;18.294;2022-07-17T01:08:05;11.85;;;4.90;;
58681;SDS011;44460;40.162;18.294;2022-07-17T01:10:31;14.07;;;4.68;;
58681;SDS011;44460;40.162;18.294;2022-07-17T01:12:56;10.45;;;4.85;;
58681;SDS011;44460;40.162;18.294;2022-07-17T01:15:22;12.80;;;4.63;;
58681;SDS011;44460;40.162;18.294;2022-07-17T01:17:49;14.65;;;4.68;;
58681;SDS011;44460;40.162;18.294;2022-07-17T01:20:14;8.10;;;4.30;;
58681;SDS011;44460;40.162;18.294;2022-07-17T01:22:50;11.63;;;3.97;;
58681;SDS011;44460;40.162;18.294;2022-07-17T01:25:18;8.43;;;4.32;;
58681;SDS011;44460;40.162;18.294;2022-07-17T01:27:44;8.52;;;3.92;;
58681;SDS011;44460;40.162;18.294;2022-07-17T01:30:09;8.07;;;4.03;;
58681;SDS011;44460;40.162;18.294;2022-07-17T01:32:36;8.48;;;4.05;;
58681;SDS011;44460;40.162;18.294;2022-07-17T01:35:02;10.82;;;3.72;;
58681;SDS011;44460;40.162;18.294;2022-07-17T01:37:28;8.63;;;3.72;;
58681;SDS011;44460;40.162;18.294;2022-07-17T01:39:53;8.85;;;4.00;;
58681;SDS011;44460;40.162;18.294;2022-07-17T01:42:20;9.55;;;4.40;;
58681;SDS011;44460;40.162;18.294;2022-07-17T01:44:45;8.90;;;3.80;;
58681;SDS011;44460;40.162;18.294;2022-07-17T01:47:12;9.15;;;4.10;;
58681;SDS011;44460;40.162;18.294;2022-07-17T01:49:37;9.00;;;4.03;;
58681;SDS011;44460;40.162;18.294;2022-07-17T01:52:03;10.65;;;4.35;;
58681;SDS011;44460;40.162;18.294;2022-07-17T01:54:29;11.20;;;4.40;;
58681;SDS011;44460;40.162;18.294;2022-07-17T01:56:54;14.02;;;4.63;;
58681;SDS011;44460;40.162;18.294;2022-07-17T01:59:20;13.10;;;4.40;;
58681;SDS011;44460;40.162;18.294;2022-07-17T02:01:45;9.10;;;4.05;;
58681;SDS011;44460;40.162;18.294;2022-07-17T02:04:11;13.07;;;4.32;;
58681;SDS011;44460;40.162;18.294;2022-07-17T02:06:36;7.25;;;3.88;;
58681;SDS011;44460;40.162;18.294;2022-07-17T02:09:02;9.75;;;3.97;;
58681;SDS011;44460;40.162;18.294;2022-07-17T02:11:28;9.70;;;4.35;;
58681;SDS011;44460;40.162;18.294;2022-07-17T02:13:53;11.35;;;4.15;;
58681;SDS011;44460;40.162;18.294;2022-07-17T02:16:19;11.38;;;4.20;;
58681;SDS011;44460;40.162;18.294;2022-07-17T02:18:44;7.43;;;4.32;;
58681;SDS011;44460;40.162;18.294;2022-07-17T02:21:09;9.32;;;4.38;;
58681;SDS011;44460;40.162;18.294;2022-07-17T02:23:35;11.30;;;4.60;;
58681;SDS011;44460;40.162;18.294;2022-07-17T02:26:00;14.77;;;4.70;;
58681;SDS011;44460;40.162;18.294;2022-07-17T02:28:26;8.23;;;4.13;;
58681;SDS011;44460;40.162;18.294;2022-07-17T02:30:51;10.35;;;4.30;;
58681;SDS011;44460;40.162;18.294;2022-07-17T02:33:17;12.50;;;4.65;;
58681;SDS011;44460;40.162;18.294;2022-07-17T02:35:42;15.93;;;4.97;;
58681;SDS011;44460;40.162;18.294;2022-07-17T02:38:07;7.55;;;4.40;;
58681;SDS011;44460;40.162;18.294;2022-07-17T02:40:33;8.55;;;4.13;;
58681;SDS011;44460;40.162;18.294;2022-07-17T02:42:58;13.38;;;5.18;;
58681;SDS011;44460;40.162;18.294;2022-07-17T02:45:24;11.00;;;4.45;;
58681;SDS011;44460;40.162;18.294;2022-07-17T02:47:50;9.10;;;4.22;;
58681;SDS011;44460;40.162;18.294;2022-07-17T02:50:15;9.25;;;4.35;;
58681;SDS011;44460;40.162;18.294;2022-07-17T02:52:40;8.23;;;4.43;;
58681;SDS011;44460;40.162;18.294;2022-07-17T02:55:09;13.15;;;4.50;;
58681;SDS011;44460;40.162;18.294;2022-07-17T02:57:34;9.25;;;5.38;;
58681;SDS011;44460;40.162;18.294;2022-07-17T03:00:00;9.55;;;4.95;;
58681;SDS011;44460;40.162;18.294;2022-07-17T03:02:26;10.15;;;4.72;;
58681;SDS011;44460;40.162;18.294;2022-07-17T03:04:51;11.70;;;4.50;;
58681;SDS011;44460;40.162;18.294;2022-07-17T03:07:16;10.60;;;5.10;;
58681;SDS011;44460;40.162;18.294;2022-07-17T03:09:42;8.85;;;4.53;;
58681;SDS011;44460;40.162;18.294;2022-07-17T03:12:07;11.57;;;5.45;;
58681;SDS011;44460;40.162;18.294;2022-07-17T03:14:33;9.95;;;5.32;;
58681;SDS011;44460;40.162;18.294;2022-07-17T03:16:58;9.60;;;5.22;;
58681;SDS011;44460;40.162;18.294;2022-07-17T03:19:23;12.68;;;5.65;;
58681;SDS011;44460;40.162;18.294;2022-07-17T03:21:49;10.55;;;5.22;;
58681;SDS011;44460;40.162;18.294;2022-07-17T03:24:14;12.02;;;5.55;;
58681;SDS011;44460;40.162;18.294;2022-07-17T03:26:40;14.48;;;5.68;;
58681;SDS011;44460;40.162;18.294;2022-07-17T03:29:05;13.43;;;5.90;;
58681;SDS011;44460;40.162;18.294;2022-07-17T03:31:31;10.98;;;6.20;;
58681;SDS011;44460;40.162;18.294;2022-07-17T03:33:56;10.73;;;5.82;;
58681;SDS011;44460;40.162;18.294;2022-07-17T03:36:22;13.40;;;5.40;;
58681;SDS011;44460;40.162;18.294;2022-07-17T03:38:47;11.75;;;5.45;;
58681;SDS011;44460;40.162;18.294;2022-07-17T03:41:12;11.98;;;5.38;;
58681;SDS011;44460;40.162;18.294;2022-07-17T03:43:38;10.30;;;5.90;;
58681;SDS011;44460;40.162;18.294;2022-07-17T03:46:03;10.13;;;5.72;;
58681;SDS011;44460;40.162;18.294;2022-07-17T03:48:29;15.77;;;5.70;;
58681;SDS011;44460;40.162;18.294;2022-07-17T03:50:54;8.77;;;4.80;;
58681;SDS011;44460;40.162;18.294;2022-07-17T03:53:19;15.23;;;5.15;;
58681;SDS011;44460;40.162;18.294;2022-07-17T03:55:45;11.30;;;5.25;;
58681;SDS011;44460;40.162;18.294;2022-07-17T03:58:10;13.02;;;4.93;;
58681;SDS011;44460;40.162;18.294;2022-07-17T04:00:36;13.23;;;5.30;;
58681;SDS011;44460;40.162;18.294;2022-07-17T04:03:01;11.27;;;4.78;;
58681;SDS011;44460;40.162;18.294;2022-07-17T04:05:26;15.82;;;4.97;;
58681;SDS011;44460;40.162;18.294;2022-07-17T04:07:52;9.63;;;4.93;;
58681;SDS011;44460;40.162;18.294;2022-07-17T04:10:17;9.02;;;4.65;;
58681;SDS011;44460;40.162;18.294;2022-07-17T04:12:43;8.35;;;5.07;;
58681;SDS011;44460;40.162;18.294;2022-07-17T04:15:08;10.45;;;5.10;;
58681;SDS011;44460;40.162;18.294;2022-07-17T04:17:34;16.33;;;5.45;;
58681;SDS011;44460;40.162;18.294;2022-07-17T04:19:59;9.20;;;4.95;;
58681;SDS011;44460;40.162;18.294;2022-07-17T04:22:25;11.05;;;5.20;;
58681;SDS011;44460;40.162;18.294;2022-07-17T04:24:51;10.48;;;5.20;;
58681;SDS011;44460;40.162;18.294;2022-07-17T04:27:16;8.70;;;5.13;;
58681;SDS011;44460;40.162;18.294;2022-07-17T04:29:42;18.92;;;9.65;;
58681;SDS011;44460;40.162;18.294;2022-07-17T04:32:07;18.45;;;8.30;;
58681;SDS011;44460;40.162;18.294;2022-07-17T04:34:33;31.60;;;13.82;;
58681;SDS011;44460;40.162;18.294;2022-07-17T04:36:59;20.50;;;9.90;;
58681;SDS011;44460;40.162;18.294;2022-07-17T04:39:25;19.52;;;8.55;;
58681;SDS011;44460;40.162;18.294;2022-07-17T04:41:51;19.50;;;7.50;;
58681;SDS011;44460;40.162;18.294;2022-07-17T04:44:16;25.95;;;8.85;;
58681;SDS011;44460;40.162;18.294;2022-07-17T04:46:42;19.48;;;8.82;;
58681;SDS011;44460;40.162;18.294;2022-07-17T04:49:07;14.45;;;7.13;;
58681;SDS011;44460;40.162;18.294;2022-07-17T04:51:33;22.95;;;7.13;;
58681;SDS011;44460;40.162;18.294;2022-07-17T04:53:58;41.92;;;17.42;;
58681;SDS011;44460;40.162;18.294;2022-07-17T04:56:24;37.95;;;15.02;;
58681;SDS011;44460;40.162;18.294;2022-07-17T04:58:49;31.50;;;10.80;;
58681;SDS011;44460;40.162;18.294;2022-07-17T05:01:15;24.15;;;10.00;;
58681;SDS011;44460;40.162;18.294;2022-07-17T05:03:40;25.98;;;9.50;;
58681;SDS011;44460;40.162;18.294;2022-07-17T05:06:05;27.92;;;7.63;;
58681;SDS011;44460;40.162;18.294;2022-07-17T05:08:31;25.90;;;7.90;;
58681;SDS011;44460;40.162;18.294;2022-07-17T05:10:57;20.83;;;6.60;;
58681;SDS011;44460;40.162;18.294;2022-07-17T05:13:22;13.70;;;6.13;;
58681;SDS011;44460;40.162;18.294;2022-07-17T05:15:47;13.18;;;5.63;;
58681;SDS011;44460;40.162;18.294;2022-07-17T05:18:14;13.73;;;5.38;;
58681;SDS011;44460;40.162;18.294;2022-07-17T05:20:40;8.85;;;4.47;;
58681;SDS011;44460;40.162;18.294;2022-07-17T05:23:06;18.70;;;5.97;;
58681;SDS011;44460;40.162;18.294;2022-07-17T05:25:31;11.52;;;4.70;;
58681;SDS011;44460;40.162;18.294;2022-07-17T05:27:57;9.48;;;4.65;;
58681;SDS011;44460;40.162;18.294;2022-07-17T05:30:23;8.73;;;4.38;;
58681;SDS011;44460;40.162;18.294;2022-07-17T05:32:48;9.43;;;4.30;;
58681;SDS011;44460;40.162;18.294;2022-07-17T05:35:14;10.20;;;4.22;;
58681;SDS011;44460;40.162;18.294;2022-07-17T05:37:39;7.93;;;3.95;;
58681;SDS011;44460;40.162;18.294;2022-07-17T05:40:05;13.63;;;4.65;;
58681;SDS011;44460;40.162;18.294;2022-07-17T05:42:30;12.27;;;4.05;;
58681;SDS011;44460;40.162;18.294;2022-07-17T05:44:56;11.43;;;4.13;;
58681;SDS011;44460;40.162;18.294;2022-07-17T05:47:21;14.53;;;4.63;;
58681;SDS011;44460;40.162;18.294;2022-07-17T05:49:46;12.63;;;4.00;;
58681;SDS011;44460;40.162;18.294;2022-07-17T05:52:12;7.65;;;3.22;;
58681;SDS011;44460;40.162;18.294;2022-07-17T05:54:37;7.50;;;3.20;;
58681;SDS011;44460;40.162;18.294;2022-07-17T05:57:03;7.80;;;3.50;;
58681;SDS011;44460;40.162;18.294;2022-07-17T05:59:29;11.17;;;3.37;;
58681;SDS011;44460;40.162;18.294;2022-07-17T06:01:54;8.20;;;3.40;;
58681;SDS011;44460;40.162;18.294;2022-07-17T06:04:19;9.63;;;3.55;;
58681;SDS011;44460;40.162;18.294;2022-07-17T06:06:45;7.63;;;3.20;;
58681;SDS011;44460;40.162;18.294;2022-07-17T06:09:10;9.13;;;3.28;;
58681;SDS011;44460;40.162;18.294;2022-07-17T06:11:36;9.83;;;3.20;;
58681;SDS011;44460;40.162;18.294;2022-07-17T06:14:01;14.60;;;3.70;;
58681;SDS011;44460;40.162;18.294;2022-07-17T06:16:27;9.43;;;3.03;;
58681;SDS011;44460;40.162;18.294;2022-07-17T06:18:52;11.80;;;3.30;;
58681;SDS011;44460;40.162;18.294;2022-07-17T06:21:17;6.17;;;3.17;;
58681;SDS011;44460;40.162;18.294;2022-07-17T06:23:43;6.40;;;3.07;;
58681;SDS011;44460;40.162;18.294;2022-07-17T06:26:08;6.37;;;3.30;;
58681;SDS011;44460;40.162;18.294;2022-07-17T06:28:34;7.60;;;2.70;;
58681;SDS011;44460;40.162;18.294;2022-07-17T06:30:59;11.10;;;3.10;;
58681;SDS011;44460;40.162;18.294;2022-07-17T06:33:25;6.00;;;2.80;;
58681;SDS011;44460;40.162;18.294;2022-07-17T06:35:50;8.40;;;2.77;;
58681;SDS011;44460;40.162;18.294;2022-07-17T06:38:16;9.00;;;3.27;;
58681;SDS011;44460;40.162;18.294;2022-07-17T06:40:41;9.87;;;3.00;;
58681;SDS011;44460;40.162;18.294;2022-07-17T06:43:07;6.90;;;2.70;;
58681;SDS011;44460;40.162;18.294;2022-07-17T06:45:33;9.87;;;3.27;;
58681;SDS011;44460;40.162;18.294;2022-07-17T06:47:58;9.37;;;2.90;;
58681;SDS011;44460;40.162;18.294;2022-07-17T06:50:24;8.83;;;3.00;;
58681;SDS011;44460;40.162;18.294;2022-07-17T06:52:49;5.43;;;2.50;;
58681;SDS011;44460;40.162;18.294;2022-07-17T06:55:15;4.20;;;2.33;;
58681;SDS011;44460;40.162;18.294;2022-07-17T06:57:41;14.13;;;3.03;;
58681;SDS011;44460;40.162;18.294;2022-07-17T07:00:06;5.63;;;2.10;;
58681;SDS011;44460;40.162;18.294;2022-07-17T07:02:33;5.00;;;2.13;;
58681;SDS011;44460;40.162;18.294;2022-07-17T07:04:59;4.57;;;2.03;;
58681;SDS011;44460;40.162;18.294;2022-07-17T07:07:24;6.87;;;2.33;;
58681;SDS011;44460;40.162;18.294;2022-07-17T07:09:50;6.33;;;1.97;;
58681;SDS011;44460;40.162;18.294;2022-07-17T07:12:15;5.00;;;2.00;;
58681;SDS011;44460;40.162;18.294;2022-07-17T07:14:41;5.13;;;2.00;;
58681;SDS011;44460;40.162;18.294;2022-07-17T07:17:06;7.13;;;2.20;;
58681;SDS011;44460;40.162;18.294;2022-07-17T07:19:31;5.93;;;1.80;;
58681;SDS011;44460;40.162;18.294;2022-07-17T07:21:57;9.00;;;2.50;;
58681;SDS011;44460;40.162;18.294;2022-07-17T07:24:22;4.57;;;2.23;;
58681;SDS011;44460;40.162;18.294;2022-07-17T07:26:48;5.47;;;2.13;;
58681;SDS011;44460;40.162;18.294;2022-07-17T07:29:13;6.20;;;1.83;;
58681;SDS011;44460;40.162;18.294;2022-07-17T07:31:39;5.20;;;2.30;;
58681;SDS011;44460;40.162;18.294;2022-07-17T07:34:04;3.60;;;1.90;;
58681;SDS011;44460;40.162;18.294;2022-07-17T07:36:30;9.23;;;1.90;;
58681;SDS011;44460;40.162;18.294;2022-07-17T07:38:55;5.30;;;1.87;;
58681;SDS011;44460;40.162;18.294;2022-07-17T07:41:20;7.33;;;2.17;;
58681;SDS011;44460;40.162;18.294;2022-07-17T07:43:46;2.90;;;1.47;;
58681;SDS011;44460;40.162;18.294;2022-07-17T07:46:11;6.10;;;1.97;;
58681;SDS011;44460;40.162;18.294;2022-07-17T07:48:37;3.90;;;1.80;;
58681;SDS011;44460;40.162;18.294;2022-07-17T07:51:02;4.93;;;1.80;;
58681;SDS011;44460;40.162;18.294;2022-07-17T07:53:28;7.53;;;1.50;;
58681;SDS011;44460;40.162;18.294;2022-07-17T07:55:53;4.60;;;1.77;;
58681;SDS011;44460;40.162;18.294;2022-07-17T07:58:19;4.17;;;1.83;;
58681;SDS011;44460;40.162;18.294;2022-07-17T08:00:44;2.50;;;1.50;;
58681;SDS011;44460;40.162;18.294;2022-07-17T08:03:10;5.30;;;2.00;;
58681;SDS011;44460;40.162;18.294;2022-07-17T08:05:36;7.50;;;1.93;;
58681;SDS011;44460;40.162;18.294;2022-07-17T08:08:01;4.60;;;1.90;;
58681;SDS011;44460;40.162;18.294;2022-07-17T08:10:27;3.57;;;1.80;;
58681;SDS011;44460;40.162;18.294;2022-07-17T08:12:52;9.03;;;1.70;;
58681;SDS011;44460;40.162;18.294;2022-07-17T08:15:19;6.40;;;1.87;;
58681;SDS011;44460;40.162;18.294;2022-07-17T08:20:10;3.53;;;2.00;;
58681;SDS011;44460;40.162;18.294;2022-07-17T08:22:35;6.40;;;2.03;;
58681;SDS011;44460;40.162;18.294;2022-07-17T08:25:01;4.80;;;1.90;;
58681;SDS011;44460;40.162;18.294;2022-07-17T08:27:26;5.80;;;1.77;;
58681;SDS011;44460;40.162;18.294;2022-07-17T08:29:52;6.10;;;2.20;;
58681;SDS011;44460;40.162;18.294;2022-07-17T08:32:18;5.20;;;1.90;;
58681;SDS011;44460;40.162;18.294;2022-07-17T08:34:43;5.57;;;2.03;;
58681;SDS011;44460;40.162;18.294;2022-07-17T08:37:08;5.27;;;1.93;;
58681;SDS011;44460;40.162;18.294;2022-07-17T08:39:34;7.10;;;2.00;;
58681;SDS011;44460;40.162;18.294;2022-07-17T08:42:01;2.83;;;1.80;;
58681;SDS011;44460;40.162;18.294;2022-07-17T08:44:27;4.47;;;1.98;;
58681;SDS011;44460;40.162;18.294;2022-07-17T08:46:53;4.43;;;1.93;;
58681;SDS011;44460;40.162;18.294;2022-07-17T08:49:22;5.22;;;1.80;;
58681;SDS011;44460;40.162;18.294;2022-07-17T08:51:49;4.90;;;1.95;;
58681;SDS011;44460;40.162;18.294;2022-07-17T08:54:14;5.30;;;1.90;;
58681;SDS011;44460;40.162;18.294;2022-07-17T08:56:40;11.73;;;2.10;;
58681;SDS011;44460;40.162;18.294;2022-07-17T08:59:05;11.73;;;1.93;;
58681;SDS011;44460;40.162;18.294;2022-07-17T09:01:30;9.67;;;2.00;;
58681;SDS011;44460;40.162;18.294;2022-07-17T09:04:02;7.53;;;2.20;;
58681;SDS011;44460;40.162;18.294;2022-07-17T09:06:31;4.05;;;2.10;;
58681;SDS011;44460;40.162;18.294;2022-07-17T09:09:03;3.77;;;2.13;;
58681;SDS011;44460;40.162;18.294;2022-07-17T09:11:29;4.88;;;1.90;;
58681;SDS011;44460;40.162;18.294;2022-07-17T09:13:55;4.17;;;2.00;;
58681;SDS011;44460;40.162;18.294;2022-07-17T09:16:20;8.60;;;2.13;;
58681;SDS011;44460;40.162;18.294;2022-07-17T09:18:47;6.83;;;2.20;;
58681;SDS011;44460;40.162;18.294;2022-07-17T09:21:19;4.20;;;2.03;;
58681;SDS011;44460;40.162;18.294;2022-07-17T09:23:45;5.07;;;2.10;;
58681;SDS011;44460;40.162;18.294;2022-07-17T09:26:11;3.93;;;2.00;;
58681;SDS011;44460;40.162;18.294;2022-07-17T09:28:46;4.30;;;1.87;;
58681;SDS011;44460;40.162;18.294;2022-07-17T09:31:11;4.70;;;1.92;;
58681;SDS011;44460;40.162;18.294;2022-07-17T09:33:37;4.23;;;1.70;;
58681;SDS011;44460;40.162;18.294;2022-07-17T09:36:09;5.13;;;1.90;;
58681;SDS011;44460;40.162;18.294;2022-07-17T09:38:39;6.05;;;2.03;;
58681;SDS011;44460;40.162;18.294;2022-07-17T09:46:08;5.53;;;2.15;;
58681;SDS011;44460;40.162;18.294;2022-07-17T09:48:33;7.53;;;2.90;;
58681;SDS011;44460;40.162;18.294;2022-07-17T09:51:00;4.55;;;2.00;;
58681;SDS011;44460;40.162;18.294;2022-07-17T09:53:27;5.22;;;2.13;;
58681;SDS011;44460;40.162;18.294;2022-07-17T09:55:53;3.55;;;1.75;;
58681;SDS011;44460;40.162;18.294;2022-07-17T09:58:21;5.32;;;2.10;;
58681;SDS011;44460;40.162;18.294;2022-07-17T10:00:48;6.72;;;2.25;;
58681;SDS011;44460;40.162;18.294;2022-07-17T10:03:16;3.17;;;2.00;;
58681;SDS011;44460;40.162;18.294;2022-07-17T10:05:43;8.10;;;1.83;;
58681;SDS011;44460;40.162;18.294;2022-07-17T10:08:09;4.07;;;2.05;;
58681;SDS011;44460;40.162;18.294;2022-07-17T10:10:35;3.87;;;1.90;;
58681;SDS011;44460;40.162;18.294;2022-07-17T10:13:01;4.70;;;2.10;;
58681;SDS011;44460;40.162;18.294;2022-07-17T10:15:26;5.70;;;2.13;;
58681;SDS011;44460;40.162;18.294;2022-07-17T10:18:02;4.80;;;2.10;;
58681;SDS011;44460;40.162;18.294;2022-07-17T10:20:28;3.83;;;1.90;;
58681;SDS011;44460;40.162;18.294;2022-07-17T10:22:53;6.97;;;2.33;;
58681;SDS011;44460;40.162;18.294;2022-07-17T10:25:19;10.40;;;2.30;;
58681;SDS011;44460;40.162;18.294;2022-07-17T10:27:48;5.68;;;1.83;;
58681;SDS011;44460;40.162;18.294;2022-07-17T10:30:19;3.40;;;2.10;;
58681;SDS011;44460;40.162;18.294;2022-07-17T10:32:50;3.33;;;1.92;;
58681;SDS011;44460;40.162;18.294;2022-07-17T10:35:16;6.30;;;2.40;;
58681;SDS011;44460;40.162;18.294;2022-07-17T10:37:41;4.83;;;1.97;;
58681;SDS011;44460;40.162;18.294;2022-07-17T10:40:11;8.40;;;2.10;;
58681;SDS011;44460;40.162;18.294;2022-07-17T10:42:37;4.13;;;2.33;;
58681;SDS011;44460;40.162;18.294;2022-07-17T10:45:13;5.18;;;2.22;;
58681;SDS011;44460;40.162;18.294;2022-07-17T10:47:47;5.20;;;2.00;;
58681;SDS011;44460;40.162;18.294;2022-07-17T10:50:12;6.35;;;1.98;;
58681;SDS011;44460;40.162;18.294;2022-07-17T10:52:38;5.77;;;2.07;;
58681;SDS011;44460;40.162;18.294;2022-07-17T10:55:04;4.37;;;1.70;;
58681;SDS011;44460;40.162;18.294;2022-07-17T10:57:31;7.32;;;2.20;;
58681;SDS011;44460;40.162;18.294;2022-07-17T10:59:56;5.87;;;2.03;;
58681;SDS011;44460;40.162;18.294;2022-07-17T11:02:31;4.17;;;1.70;;
58681;SDS011;44460;40.162;18.294;2022-07-17T11:05:09;4.80;;;1.85;;
58681;SDS011;44460;40.162;18.294;2022-07-17T11:07:35;4.05;;;1.80;;
58681;SDS011;44460;40.162;18.294;2022-07-17T11:10:00;4.37;;;1.70;;
58681;SDS011;44460;40.162;18.294;2022-07-17T11:12:32;3.07;;;1.70;;
58681;SDS011;44460;40.162;18.294;2022-07-17T11:15:01;5.32;;;1.85;;
58681;SDS011;44460;40.162;18.294;2022-07-17T11:17:27;4.03;;;2.20;;
58681;SDS011;44460;40.162;18.294;2022-07-17T11:19:52;7.80;;;2.23;;
58681;SDS011;44460;40.162;18.294;2022-07-17T11:22:21;5.83;;;2.00;;
58681;SDS011;44460;40.162;18.294;2022-07-17T11:24:47;7.88;;;2.45;;
58681;SDS011;44460;40.162;18.294;2022-07-17T11:27:20;5.93;;;1.90;;
58681;SDS011;44460;40.162;18.294;2022-07-17T11:29:46;4.20;;;2.20;;
58681;SDS011;44460;40.162;18.294;2022-07-17T11:32:12;4.80;;;2.20;;
58681;SDS011;44460;40.162;18.294;2022-07-17T11:34:38;8.17;;;3.00;;
58681;SDS011;44460;40.162;18.294;2022-07-17T11:37:04;3.70;;;2.20;;
58681;SDS011;44460;40.162;18.294;2022-07-17T11:39:37;9.70;;;1.90;;
58681;SDS011;44460;40.162;18.294;2022-07-17T11:42:03;5.70;;;2.03;;
58681;SDS011;44460;40.162;18.294;2022-07-17T11:44:28;7.03;;;2.20;;
58681;SDS011;44460;40.162;18.294;2022-07-17T11:46:54;7.00;;;2.40;;
58681;SDS011;44460;40.162;18.294;2022-07-17T11:49:38;3.83;;;2.30;;
58681;SDS011;44460;40.162;18.294;2022-07-17T11:54:42;2.90;;;1.83;;
58681;SDS011;44460;40.162;18.294;2022-07-17T11:57:08;3.88;;;1.92;;
58681;SDS011;44460;40.162;18.294;2022-07-17T11:59:33;4.53;;;2.20;;
58681;SDS011;44460;40.162;18.294;2022-07-17T12:02:09;4.83;;;2.17;;
58681;SDS011;44460;40.162;18.294;2022-07-17T12:04:34;8.48;;;2.22;;
58681;SDS011;44460;40.162;18.294;2022-07-17T12:07:01;3.43;;;2.00;;
58681;SDS011;44460;40.162;18.294;2022-07-17T12:09:27;4.85;;;2.17;;
58681;SDS011;44460;40.162;18.294;2022-07-17T12:11:53;8.77;;;2.30;;
58681;SDS011;44460;40.162;18.294;2022-07-17T12:14:18;5.03;;;2.27;;
58681;SDS011;44460;40.162;18.294;2022-07-17T12:16:43;6.60;;;2.27;;
58681;SDS011;44460;40.162;18.294;2022-07-17T12:19:14;9.03;;;2.10;;
58681;SDS011;44460;40.162;18.294;2022-07-17T12:21:47;5.18;;;2.15;;
58681;SDS011;44460;40.162;18.294;2022-07-17T12:24:20;4.93;;;2.22;;
58681;SDS011;44460;40.162;18.294;2022-07-17T12:26:46;3.63;;;2.20;;
58681;SDS011;44460;40.162;18.294;2022-07-17T12:29:12;4.77;;;2.37;;
58681;SDS011;44460;40.162;18.294;2022-07-17T12:31:37;11.63;;;2.43;;
58681;SDS011;44460;40.162;18.294;2022-07-17T12:34:02;3.50;;;2.10;;
58681;SDS011;44460;40.162;18.294;2022-07-17T12:36:28;5.23;;;2.07;;
58681;SDS011;44460;40.162;18.294;2022-07-17T12:38:53;8.13;;;2.10;;
58681;SDS011;44460;40.162;18.294;2022-07-17T12:41:19;6.80;;;2.40;;
58681;SDS011;44460;40.162;18.294;2022-07-17T12:43:45;5.93;;;2.20;;
58681;SDS011;44460;40.162;18.294;2022-07-17T12:46:11;5.90;;;2.30;;
58681;SDS011;44460;40.162;18.294;2022-07-17T12:48:37;5.68;;;2.50;;
58681;SDS011;44460;40.162;18.294;2022-07-17T12:51:05;5.40;;;2.33;;
58681;SDS011;44460;40.162;18.294;2022-07-17T12:53:31;3.63;;;2.20;;
58681;SDS011;44460;40.162;18.294;2022-07-17T12:55:56;6.90;;;2.50;;
58681;SDS011;44460;40.162;18.294;2022-07-17T12:58:21;4.37;;;2.30;;
58681;SDS011;44460;40.162;18.294;2022-07-17T13:00:47;4.23;;;2.07;;
58681;SDS011;44460;40.162;18.294;2022-07-17T13:03:12;9.77;;;2.20;;
58681;SDS011;44460;40.162;18.294;2022-07-17T13:05:38;5.90;;;2.27;;
58681;SDS011;44460;40.162;18.294;2022-07-17T13:08:03;4.00;;;2.10;;
58681;SDS011;44460;40.162;18.294;2022-07-17T13:10:29;7.40;;;2.33;;
58681;SDS011;44460;40.162;18.294;2022-07-17T13:12:54;6.07;;;2.17;;
58681;SDS011;44460;40.162;18.294;2022-07-17T13:15:20;4.17;;;2.20;;
58681;SDS011;44460;40.162;18.294;2022-07-17T13:17:45;3.40;;;2.00;;
58681;SDS011;44460;40.162;18.294;2022-07-17T13:20:11;5.87;;;1.90;;
58681;SDS011;44460;40.162;18.294;2022-07-17T13:22:36;4.47;;;2.03;;
58681;SDS011;44460;40.162;18.294;2022-07-17T13:25:03;3.42;;;2.03;;
58681;SDS011;44460;40.162;18.294;2022-07-17T13:27:28;3.77;;;2.07;;
58681;SDS011;44460;40.162;18.294;2022-07-17T13:29:54;4.33;;;2.00;;
58681;SDS011;44460;40.162;18.294;2022-07-17T13:32:19;4.50;;;2.00;;
58681;SDS011;44460;40.162;18.294;2022-07-17T13:34:45;4.70;;;2.00;;
58681;SDS011;44460;40.162;18.294;2022-07-17T13:37:10;4.20;;;2.10;;
58681;SDS011;44460;40.162;18.294;2022-07-17T13:39:36;3.67;;;2.00;;
58681;SDS011;44460;40.162;18.294;2022-07-17T13:42:02;4.90;;;2.10;;
58681;SDS011;44460;40.162;18.294;2022-07-17T13:44:27;6.38;;;2.28;;
58681;SDS011;44460;40.162;18.294;2022-07-17T13:46:53;6.80;;;2.53;;
58681;SDS011;44460;40.162;18.294;2022-07-17T13:49:19;4.80;;;2.03;;
58681;SDS011;44460;40.162;18.294;2022-07-17T13:51:44;5.20;;;2.00;;
58681;SDS011;44460;40.162;18.294;2022-07-17T13:54:11;7.90;;;2.20;;
58681;SDS011;44460;40.162;18.294;2022-07-17T13:56:37;6.93;;;2.50;;
58681;SDS011;44460;40.162;18.294;2022-07-17T13:59:03;5.87;;;2.40;;
58681;SDS011;44460;40.162;18.294;2022-07-17T14:01:28;4.70;;;2.30;;
58681;SDS011;44460;40.162;18.294;2022-07-17T14:03:54;4.53;;;2.33;;
58681;SDS011;44460;40.162;18.294;2022-07-17T14:06:20;7.97;;;2.30;;
58681;SDS011;44460;40.162;18.294;2022-07-17T14:08:46;9.17;;;2.67;;
58681;SDS011;44460;40.162;18.294;2022-07-17T14:11:11;5.00;;;2.40;;
58681;SDS011;44460;40.162;18.294;2022-07-17T14:13:37;6.07;;;2.60;;
58681;SDS011;44460;40.162;18.294;2022-07-17T14:16:02;6.67;;;2.60;;
58681;SDS011;44460;40.162;18.294;2022-07-17T14:18:28;7.25;;;2.25;;
58681;SDS011;44460;40.162;18.294;2022-07-17T14:20:53;5.88;;;2.70;;
58681;SDS011;44460;40.162;18.294;2022-07-17T14:23:19;6.00;;;2.13;;
58681;SDS011;44460;40.162;18.294;2022-07-17T14:25:44;5.20;;;2.50;;
58681;SDS011;44460;40.162;18.294;2022-07-17T14:28:10;4.25;;;2.40;;
58681;SDS011;44460;40.162;18.294;2022-07-17T14:30:36;6.20;;;2.50;;
58681;SDS011;44460;40.162;18.294;2022-07-17T14:33:01;5.20;;;2.07;;
58681;SDS011;44460;40.162;18.294;2022-07-17T14:35:27;4.70;;;2.13;;